RPA3648 CYYZ-KEWR
Flight info
| Callsign | RPA3648 |
|---|---|
| Flight time | 0h 57m |
| Altitude | 35000 |
| Route | KEPTA3 BMPAH DCT AEVON DCT GEE FLOSI4 |
| Aircraft | E75L/M-SDE3GILORVW/S |
Departure
| Time | 2026-05-04 21:40 |
|---|---|
| Airport | Toronto Pearson International Airport (CYYZ) |
Arrival
| Time | 2026-05-04 22:37 |
|---|---|
| Airport | Newark Liberty International Airport (KEWR) |
| Time | Latitude | Longitude | Altitude | Speed | Heading |
|---|---|---|---|---|---|
| 2026-05-04 21:17 | 43.67957 | -79.60730 | 578 ft | 0 kts | 226° |
| 2026-05-04 21:28 | 43.67965 | -79.60718 | 569 ft | 2 kts | 224° |
| 2026-05-04 21:28 | 43.67977 | -79.60703 | 562 ft | 2 kts | 221° |
| 2026-05-04 21:28 | 43.67991 | -79.60689 | 566 ft | 2 kts | 207° |
| 2026-05-04 21:29 | 43.68006 | -79.60688 | 568 ft | 2 kts | 152° |
| 2026-05-04 21:29 | 43.68013 | -79.60694 | 566 ft | 0 kts | 141° |
| 2026-05-04 21:33 | 43.68007 | -79.60687 | 567 ft | 3 kts | 139° |
| 2026-05-04 21:33 | 43.67983 | -79.60656 | 565 ft | 7 kts | 136° |
| 2026-05-04 21:33 | 43.67934 | -79.60591 | 559 ft | 12 kts | 136° |
| 2026-05-04 21:34 | 43.67874 | -79.60512 | 559 ft | 12 kts | 136° |
| 2026-05-04 21:34 | 43.67862 | -79.60493 | 559 ft | 3 kts | 127° |
| 2026-05-04 21:34 | 43.67852 | -79.60449 | 562 ft | 7 kts | 101° |
| 2026-05-04 21:34 | 43.67822 | -79.60367 | 562 ft | 12 kts | 102° |
| 2026-05-04 21:35 | 43.67870 | -79.60250 | 561 ft | 17 kts | 46° |
| 2026-05-04 21:35 | 43.67963 | -79.60113 | 562 ft | 19 kts | 46° |
| 2026-05-04 21:35 | 43.68031 | -79.60016 | 563 ft | 15 kts | 46° |
| 2026-05-04 21:35 | 43.68077 | -79.59901 | 559 ft | 6 kts | 107° |
| 2026-05-04 21:36 | 43.68047 | -79.59845 | 559 ft | 8 kts | 136° |
| 2026-05-04 21:36 | 43.68005 | -79.59791 | 560 ft | 10 kts | 136° |
| 2026-05-04 21:36 | 43.67999 | -79.59783 | 557 ft | 0 kts | 136° |
| 2026-05-04 21:37 | 43.67998 | -79.59782 | 557 ft | 0 kts | 136° |
| 2026-05-04 21:37 | 43.67988 | -79.59769 | 557 ft | 4 kts | 136° |
| 2026-05-04 21:37 | 43.67963 | -79.59740 | 558 ft | 6 kts | 151° |
| 2026-05-04 21:37 | 43.67913 | -79.59727 | 558 ft | 9 kts | 202° |
| 2026-05-04 21:38 | 43.67887 | -79.59754 | 559 ft | 0 kts | 225° |
| 2026-05-04 21:38 | 43.67886 | -79.59755 | 558 ft | 1 kts | 225° |
| 2026-05-04 21:39 | 43.67852 | -79.59802 | 560 ft | 21 kts | 225° |
| 2026-05-04 21:39 | 43.67594 | -79.60179 | 564 ft | 84 kts | 226° |
| 2026-05-04 21:39 | 43.67067 | -79.60949 | 582 ft | 133 kts | 227° |
| 2026-05-04 21:39 | 43.66381 | -79.61955 | 1012 ft | 150 kts | 226° |
| 2026-05-04 21:40 | 43.65697 | -79.62929 | 1437 ft | 136 kts | 226° |
| 2026-05-04 21:40 | 43.64971 | -79.63933 | 1521 ft | 164 kts | 224° |
| 2026-05-04 21:40 | 43.64137 | -79.65107 | 2259 ft | 177 kts | 225° |
| 2026-05-04 21:40 | 43.63261 | -79.66319 | 3097 ft | 180 kts | 225° |
| 2026-05-04 21:41 | 43.62361 | -79.67540 | 3868 ft | 187 kts | 225° |
| 2026-05-04 21:41 | 43.61399 | -79.68800 | 3966 ft | 189 kts | 225° |
| 2026-05-04 21:41 | 43.60454 | -79.70031 | 4079 ft | 184 kts | 225° |
| 2026-05-04 21:41 | 43.59540 | -79.71228 | 4395 ft | 184 kts | 225° |
| 2026-05-04 21:42 | 43.58471 | -79.72228 | 4686 ft | 191 kts | 208° |
| 2026-05-04 21:42 | 43.57170 | -79.72615 | 5382 ft | 201 kts | 191° |
| 2026-05-04 21:42 | 43.55729 | -79.72386 | 6199 ft | 219 kts | 172° |
| 2026-05-04 21:42 | 43.54221 | -79.71328 | 6428 ft | 269 kts | 152° |
| 2026-05-04 21:43 | 43.52769 | -79.69494 | 7051 ft | 295 kts | 131° |
| 2026-05-04 21:43 | 43.51938 | -79.66845 | 7990 ft | 308 kts | 109° |
| 2026-05-04 21:43 | 43.51502 | -79.63926 | 8878 ft | 313 kts | 103° |
| 2026-05-04 21:43 | 43.51134 | -79.60956 | 9756 ft | 317 kts | 103° |
| 2026-05-04 21:44 | 43.50733 | -79.57921 | 10328 ft | 332 kts | 104° |
| 2026-05-04 21:44 | 43.50263 | -79.54641 | 10340 ft | 366 kts | 104° |
| 2026-05-04 21:44 | 43.49769 | -79.51160 | 11018 ft | 372 kts | 104° |
| 2026-05-04 21:44 | 43.49266 | -79.47631 | 11827 ft | 376 kts | 104° |
| 2026-05-04 21:45 | 43.48753 | -79.44076 | 12666 ft | 381 kts | 104° |
| 2026-05-04 21:45 | 43.48234 | -79.40486 | 13609 ft | 383 kts | 104° |
| 2026-05-04 21:45 | 43.47705 | -79.36862 | 14330 ft | 391 kts | 104° |
| 2026-05-04 21:45 | 43.47169 | -79.33176 | 15168 ft | 395 kts | 104° |
| 2026-05-04 21:46 | 43.46623 | -79.29440 | 15974 ft | 400 kts | 104° |
| 2026-05-04 21:46 | 43.46069 | -79.25659 | 16746 ft | 406 kts | 103° |
| 2026-05-04 21:46 | 43.45515 | -79.21880 | 17495 ft | 411 kts | 103° |
| 2026-05-04 21:46 | 43.44942 | -79.17992 | 18221 ft | 417 kts | 103° |
| 2026-05-04 21:47 | 43.44363 | -79.14064 | 18892 ft | 422 kts | 103° |
| 2026-05-04 21:47 | 43.43566 | -79.10164 | 19501 ft | 425 kts | 112° |
| 2026-05-04 21:47 | 43.42405 | -79.06407 | 20118 ft | 429 kts | 117° |
| 2026-05-04 21:47 | 43.41151 | -79.02655 | 20691 ft | 434 kts | 116° |
| 2026-05-04 21:48 | 43.39909 | -78.98840 | 21262 ft | 439 kts | 116° |
| 2026-05-04 21:48 | 43.38673 | -78.94972 | 21821 ft | 444 kts | 115° |
| 2026-05-04 21:48 | 43.37435 | -78.91061 | 22353 ft | 449 kts | 115° |
| 2026-05-04 21:48 | 43.36187 | -78.87108 | 22912 ft | 453 kts | 115° |
| 2026-05-04 21:49 | 43.34926 | -78.83107 | 23433 ft | 457 kts | 115° |
| 2026-05-04 21:49 | 43.33655 | -78.79082 | 23982 ft | 460 kts | 115° |
| 2026-05-04 21:49 | 43.32392 | -78.75091 | 24511 ft | 463 kts | 115° |
| 2026-05-04 21:49 | 43.31109 | -78.71022 | 25031 ft | 466 kts | 115° |
| 2026-05-04 21:50 | 43.29826 | -78.66928 | 25687 ft | 465 kts | 114° |
| 2026-05-04 21:50 | 43.28550 | -78.62865 | 26370 ft | 463 kts | 114° |
| 2026-05-04 21:50 | 43.27270 | -78.58808 | 26991 ft | 462 kts | 114° |
| 2026-05-04 21:50 | 43.25993 | -78.54766 | 27610 ft | 461 kts | 114° |
| 2026-05-04 21:51 | 43.24722 | -78.50752 | 28273 ft | 457 kts | 114° |
| 2026-05-04 21:51 | 43.23456 | -78.46757 | 28939 ft | 456 kts | 114° |
| 2026-05-04 21:51 | 43.22192 | -78.42773 | 29552 ft | 455 kts | 114° |
| 2026-05-04 21:51 | 43.20932 | -78.38810 | 30116 ft | 453 kts | 114° |
| 2026-05-04 21:52 | 43.19669 | -78.34840 | 30569 ft | 454 kts | 114° |
| 2026-05-04 21:52 | 43.18239 | -78.30987 | 30983 ft | 453 kts | 124° |
| 2026-05-04 21:52 | 43.16356 | -78.27626 | 31438 ft | 449 kts | 133° |
| 2026-05-04 21:52 | 43.14302 | -78.24402 | 31837 ft | 450 kts | 133° |
| 2026-05-04 21:53 | 43.12264 | -78.21147 | 32255 ft | 450 kts | 132° |
| 2026-05-04 21:53 | 43.10254 | -78.17854 | 32659 ft | 450 kts | 131° |
| 2026-05-04 21:53 | 43.08264 | -78.14551 | 33069 ft | 450 kts | 131° |
| 2026-05-04 21:53 | 43.06281 | -78.11245 | 33460 ft | 450 kts | 131° |
| 2026-05-04 21:54 | 43.04299 | -78.07938 | 33842 ft | 449 kts | 131° |
| 2026-05-04 21:54 | 43.02321 | -78.04638 | 34215 ft | 447 kts | 131° |
| 2026-05-04 21:54 | 43.00373 | -78.01391 | 34542 ft | 447 kts | 131° |
| 2026-05-04 21:54 | 42.98410 | -77.98121 | 34927 ft | 444 kts | 131° |
| 2026-05-04 21:55 | 42.96435 | -77.94837 | 35025 ft | 450 kts | 131° |
| 2026-05-04 21:55 | 42.92390 | -77.88125 | 35085 ft | 465 kts | 131° |
| 2026-05-04 21:56 | 42.88257 | -77.81266 | 35084 ft | 468 kts | 131° |
| 2026-05-04 21:56 | 42.84153 | -77.74369 | 35065 ft | 469 kts | 125° |
| 2026-05-04 21:56 | 42.82723 | -77.70390 | 35059 ft | 469 kts | 106° |
| 2026-05-04 21:57 | 42.82013 | -77.66067 | 35087 ft | 468 kts | 98° |
| 2026-05-04 21:57 | 42.80908 | -77.57321 | 35078 ft | 468 kts | 98° |
| 2026-05-04 21:58 | 42.79631 | -77.48689 | 35075 ft | 468 kts | 100° |
| 2026-05-04 21:58 | 42.78282 | -77.40006 | 34845 ft | 469 kts | 100° |
| 2026-05-04 21:58 | 42.77601 | -77.35662 | 34704 ft | 468 kts | 100° |
| 2026-05-04 21:59 | 42.76920 | -77.31323 | 34549 ft | 469 kts | 100° |
| 2026-05-04 21:59 | 42.76236 | -77.26991 | 34409 ft | 469 kts | 100° |
| 2026-05-04 21:59 | 42.75551 | -77.22654 | 34273 ft | 469 kts | 99° |
| 2026-05-04 21:59 | 42.74865 | -77.18322 | 34135 ft | 468 kts | 99° |
| 2026-05-04 22:00 | 42.74184 | -77.14029 | 33995 ft | 468 kts | 99° |
| 2026-05-04 22:00 | 42.73495 | -77.09706 | 33853 ft | 469 kts | 99° |
| 2026-05-04 22:00 | 42.72801 | -77.05360 | 33711 ft | 469 kts | 99° |
| 2026-05-04 22:00 | 42.72107 | -77.01013 | 33545 ft | 469 kts | 99° |
| 2026-05-04 22:01 | 42.71411 | -76.96676 | 33383 ft | 469 kts | 100° |
| 2026-05-04 22:01 | 42.70713 | -76.92340 | 33212 ft | 469 kts | 100° |
| 2026-05-04 22:01 | 42.70011 | -76.87991 | 33051 ft | 469 kts | 100° |
| 2026-05-04 22:02 | 42.68618 | -76.79386 | 33082 ft | 469 kts | 99° |
| 2026-05-04 22:02 | 42.67207 | -76.70711 | 33075 ft | 470 kts | 100° |
| 2026-05-04 22:03 | 42.65710 | -76.62069 | 33076 ft | 472 kts | 108° |
| 2026-05-04 22:03 | 42.64308 | -76.58025 | 33230 ft | 470 kts | 121° |
| 2026-05-04 22:03 | 42.62568 | -76.54312 | 33763 ft | 464 kts | 122° |
| 2026-05-04 22:03 | 42.60811 | -76.50609 | 33903 ft | 468 kts | 122° |
| 2026-05-04 22:04 | 42.59076 | -76.46859 | 34147 ft | 469 kts | 121° |
| 2026-05-04 22:04 | 42.57384 | -76.43134 | 34401 ft | 470 kts | 121° |
| 2026-05-04 22:04 | 42.55677 | -76.39352 | 34648 ft | 471 kts | 121° |
| 2026-05-04 22:04 | 42.53968 | -76.35553 | 34894 ft | 471 kts | 121° |
| 2026-05-04 22:05 | 42.52263 | -76.31769 | 35035 ft | 468 kts | 121° |
| 2026-05-04 22:05 | 42.48859 | -76.24218 | 34719 ft | 468 kts | 121° |
| 2026-05-04 22:05 | 42.47195 | -76.20534 | 34684 ft | 451 kts | 121° |
| 2026-05-04 22:06 | 42.45564 | -76.16928 | 34686 ft | 451 kts | 121° |
| 2026-05-04 22:06 | 42.42221 | -76.09544 | 34789 ft | 467 kts | 120° |
| 2026-05-04 22:07 | 42.38790 | -76.01995 | 34794 ft | 472 kts | 120° |
| 2026-05-04 22:07 | 42.35365 | -75.94480 | 34800 ft | 470 kts | 120° |
| 2026-05-04 22:08 | 42.31930 | -75.86956 | 34815 ft | 470 kts | 120° |
| 2026-05-04 22:08 | 42.28491 | -75.79443 | 34815 ft | 470 kts | 121° |
| 2026-05-04 22:09 | 42.25043 | -75.71946 | 34820 ft | 470 kts | 120° |
| 2026-05-04 22:09 | 42.21577 | -75.64457 | 34823 ft | 470 kts | 121° |
| 2026-05-04 22:10 | 42.18118 | -75.56989 | 34823 ft | 470 kts | 121° |
| 2026-05-04 22:10 | 42.14647 | -75.49513 | 34808 ft | 470 kts | 121° |
| 2026-05-04 22:10 | 42.12903 | -75.45766 | 34442 ft | 473 kts | 120° |
| 2026-05-04 22:11 | 42.11179 | -75.42065 | 34042 ft | 472 kts | 120° |
| 2026-05-04 22:11 | 42.09432 | -75.38321 | 33602 ft | 471 kts | 120° |
| 2026-05-04 22:11 | 42.07689 | -75.34583 | 33148 ft | 471 kts | 120° |
| 2026-05-04 22:11 | 42.05983 | -75.30834 | 32688 ft | 468 kts | 117° |
| 2026-05-04 22:12 | 42.04449 | -75.26966 | 32248 ft | 468 kts | 114° |
| 2026-05-04 22:12 | 42.03007 | -75.23033 | 31812 ft | 469 kts | 114° |
| 2026-05-04 22:12 | 42.01558 | -75.19094 | 31396 ft | 471 kts | 115° |
| 2026-05-04 22:12 | 42.00093 | -75.15166 | 30955 ft | 465 kts | 115° |
| 2026-05-04 22:13 | 41.98648 | -75.11324 | 30519 ft | 456 kts | 115° |
| 2026-05-04 22:13 | 41.97226 | -75.07555 | 30089 ft | 449 kts | 116° |
| 2026-05-04 22:13 | 41.95809 | -75.03814 | 29632 ft | 448 kts | 116° |
| 2026-05-04 22:13 | 41.94408 | -75.00121 | 29170 ft | 451 kts | 116° |
| 2026-05-04 22:14 | 41.92979 | -74.96360 | 28713 ft | 453 kts | 116° |
| 2026-05-04 22:14 | 41.91545 | -74.92588 | 28258 ft | 455 kts | 116° |
| 2026-05-04 22:14 | 41.90103 | -74.88800 | 27798 ft | 456 kts | 116° |
| 2026-05-04 22:14 | 41.88657 | -74.85015 | 27327 ft | 456 kts | 116° |
| 2026-05-04 22:15 | 41.87208 | -74.81219 | 26857 ft | 457 kts | 116° |
| 2026-05-04 22:15 | 41.85754 | -74.77421 | 26400 ft | 458 kts | 117° |
| 2026-05-04 22:15 | 41.84298 | -74.73617 | 25958 ft | 458 kts | 117° |
| 2026-05-04 22:15 | 41.82837 | -74.69805 | 25507 ft | 459 kts | 117° |
| 2026-05-04 22:16 | 41.81377 | -74.65999 | 25076 ft | 460 kts | 117° |
| 2026-05-04 22:16 | 41.79915 | -74.62196 | 24639 ft | 457 kts | 117° |
| 2026-05-04 22:16 | 41.78464 | -74.58418 | 24208 ft | 454 kts | 117° |
| 2026-05-04 22:16 | 41.77037 | -74.54714 | 23787 ft | 452 kts | 117° |
| 2026-05-04 22:17 | 41.75598 | -74.50986 | 23363 ft | 449 kts | 117° |
| 2026-05-04 22:17 | 41.74163 | -74.47272 | 22859 ft | 446 kts | 117° |
| 2026-05-04 22:17 | 41.72740 | -74.43595 | 22365 ft | 442 kts | 118° |
| 2026-05-04 22:17 | 41.71333 | -74.39963 | 21885 ft | 438 kts | 118° |
| 2026-05-04 22:18 | 41.70404 | -74.37568 | 21572 ft | 436 kts | 118° |
| 2026-05-04 22:18 | 41.68982 | -74.34008 | 21100 ft | 431 kts | 123° |
| 2026-05-04 22:18 | 41.67022 | -74.31047 | 20617 ft | 422 kts | 145° |
| 2026-05-04 22:18 | 41.63561 | -74.29047 | 20000 ft | 403 kts | 176° |
| 2026-05-04 22:19 | 41.60844 | -74.29237 | 19555 ft | 385 kts | 200° |
| 2026-05-04 22:19 | 41.59186 | -74.30112 | 19274 ft | 375 kts | 211° |
| 2026-05-04 22:19 | 41.56873 | -74.31615 | 18874 ft | 374 kts | 209° |
| 2026-05-04 22:19 | 41.54453 | -74.32907 | 18460 ft | 374 kts | 205° |
| 2026-05-04 22:20 | 41.52019 | -74.34127 | 18015 ft | 371 kts | 206° |
| 2026-05-04 22:20 | 41.49599 | -74.35312 | 17529 ft | 370 kts | 204° |
| 2026-05-04 22:20 | 41.47168 | -74.36425 | 17050 ft | 367 kts | 204° |
| 2026-05-04 22:20 | 41.44756 | -74.37501 | 16576 ft | 364 kts | 204° |
| 2026-05-04 22:21 | 41.42364 | -74.38553 | 16106 ft | 361 kts | 203° |
| 2026-05-04 22:21 | 41.39979 | -74.39593 | 15648 ft | 358 kts | 203° |
| 2026-05-04 22:21 | 41.37619 | -74.40616 | 15192 ft | 356 kts | 203° |
| 2026-05-04 22:21 | 41.35271 | -74.41628 | 14746 ft | 353 kts | 203° |
| 2026-05-04 22:22 | 41.32938 | -74.42633 | 14294 ft | 351 kts | 203° |
| 2026-05-04 22:22 | 41.30620 | -74.43633 | 13879 ft | 356 kts | 203° |
| 2026-05-04 22:22 | 41.28279 | -74.44635 | 13432 ft | 350 kts | 203° |
| 2026-05-04 22:22 | 41.25977 | -74.45623 | 12945 ft | 344 kts | 202° |
| 2026-05-04 22:23 | 41.23715 | -74.46589 | 12470 ft | 338 kts | 202° |
| 2026-05-04 22:23 | 41.21490 | -74.47541 | 11998 ft | 334 kts | 202° |
| 2026-05-04 22:23 | 41.19298 | -74.48478 | 11537 ft | 327 kts | 202° |
| 2026-05-04 22:23 | 41.17157 | -74.49394 | 11086 ft | 319 kts | 202° |
| 2026-05-04 22:24 | 41.15070 | -74.50283 | 10623 ft | 311 kts | 202° |
| 2026-05-04 22:24 | 41.13043 | -74.51150 | 10176 ft | 312 kts | 202° |
| 2026-05-04 22:24 | 41.11046 | -74.52001 | 9713 ft | 288 kts | 202° |
| 2026-05-04 22:24 | 41.09193 | -74.52782 | 9196 ft | 270 kts | 202° |
| 2026-05-04 22:25 | 41.07457 | -74.53516 | 8649 ft | 253 kts | 201° |
| 2026-05-04 22:25 | 41.05707 | -74.53907 | 8152 ft | 258 kts | 191° |
| 2026-05-04 22:25 | 41.03920 | -74.54099 | 7698 ft | 256 kts | 189° |
| 2026-05-04 22:25 | 41.02155 | -74.54261 | 7218 ft | 253 kts | 189° |
| 2026-05-04 22:26 | 41.00434 | -74.54412 | 6765 ft | 249 kts | 185° |
| 2026-05-04 22:26 | 40.98750 | -74.53872 | 6321 ft | 255 kts | 154° |
| 2026-05-04 22:26 | 40.97486 | -74.52210 | 5840 ft | 262 kts | 122° |
| 2026-05-04 22:26 | 40.97052 | -74.49853 | 5372 ft | 271 kts | 89° |
| 2026-05-04 22:27 | 40.97404 | -74.47385 | 4990 ft | 273 kts | 77° |
| 2026-05-04 22:27 | 40.97846 | -74.45002 | 4979 ft | 261 kts | 77° |
| 2026-05-04 22:27 | 40.98279 | -74.42653 | 4985 ft | 264 kts | 77° |
| 2026-05-04 22:27 | 40.98631 | -74.40270 | 4956 ft | 262 kts | 92° |
| 2026-05-04 22:28 | 40.98328 | -74.37906 | 4996 ft | 261 kts | 108° |
| 2026-05-04 22:28 | 40.97874 | -74.35557 | 4985 ft | 264 kts | 107° |
| 2026-05-04 22:28 | 40.97419 | -74.33198 | 4977 ft | 264 kts | 108° |
| 2026-05-04 22:28 | 40.96964 | -74.30849 | 4964 ft | 263 kts | 107° |
| 2026-05-04 22:29 | 40.96510 | -74.28521 | 4964 ft | 261 kts | 108° |
| 2026-05-04 22:29 | 40.96060 | -74.26189 | 4968 ft | 261 kts | 107° |
| 2026-05-04 22:29 | 40.95611 | -74.23852 | 4984 ft | 264 kts | 107° |
| 2026-05-04 22:29 | 40.95160 | -74.21478 | 4750 ft | 269 kts | 107° |
| 2026-05-04 22:30 | 40.94696 | -74.19079 | 4401 ft | 270 kts | 108° |
| 2026-05-04 22:30 | 40.94240 | -74.16704 | 4043 ft | 269 kts | 107° |
| 2026-05-04 22:30 | 40.93788 | -74.14298 | 3662 ft | 269 kts | 108° |
| 2026-05-04 22:30 | 40.92983 | -74.12141 | 3292 ft | 260 kts | 135° |
| 2026-05-04 22:31 | 40.91640 | -74.10665 | 2985 ft | 243 kts | 148° |
| 2026-05-04 22:31 | 40.90378 | -74.09390 | 2957 ft | 215 kts | 147° |
| 2026-05-04 22:31 | 40.89246 | -74.08223 | 2933 ft | 198 kts | 147° |
| 2026-05-04 22:31 | 40.88180 | -74.07148 | 2918 ft | 186 kts | 156° |
| 2026-05-04 22:32 | 40.86990 | -74.06616 | 2901 ft | 179 kts | 171° |
| 2026-05-04 22:32 | 40.85765 | -74.06465 | 2880 ft | 178 kts | 181° |
| 2026-05-04 22:32 | 40.84549 | -74.06619 | 2912 ft | 174 kts | 206° |
| 2026-05-04 22:32 | 40.83519 | -74.07367 | 2967 ft | 169 kts | 212° |
| 2026-05-04 22:33 | 40.82450 | -74.08057 | 2676 ft | 175 kts | 207° |
| 2026-05-04 22:33 | 40.81325 | -74.08723 | 2343 ft | 173 kts | 208° |
| 2026-05-04 22:33 | 40.80293 | -74.09404 | 2241 ft | 164 kts | 210° |
| 2026-05-04 22:33 | 40.79289 | -74.10050 | 2059 ft | 155 kts | 210° |
| 2026-05-04 22:34 | 40.78352 | -74.10650 | 1846 ft | 144 kts | 210° |
| 2026-05-04 22:34 | 40.77489 | -74.11205 | 1668 ft | 133 kts | 209° |
| 2026-05-04 22:34 | 40.76664 | -74.11733 | 1468 ft | 129 kts | 210° |
| 2026-05-04 22:34 | 40.75862 | -74.12246 | 1307 ft | 129 kts | 208° |
| 2026-05-04 22:35 | 40.75037 | -74.12773 | 1150 ft | 135 kts | 208° |
| 2026-05-04 22:35 | 40.74199 | -74.13311 | 959 ft | 131 kts | 207° |
| 2026-05-04 22:35 | 40.73405 | -74.13819 | 815 ft | 124 kts | 207° |
| 2026-05-04 22:35 | 40.72605 | -74.14325 | 644 ft | 134 kts | 209° |
| 2026-05-04 22:36 | 40.71783 | -74.14852 | 476 ft | 130 kts | 208° |
| 2026-05-04 22:36 | 40.70975 | -74.15362 | 244 ft | 127 kts | 213° |
| 2026-05-04 22:36 | 40.70189 | -74.15878 | 112 ft | 131 kts | 210° |
| 2026-05-04 22:36 | 40.69371 | -74.16386 | 21 ft | 122 kts | 208° |
| 2026-05-04 22:37 | 40.68738 | -74.16801 | 18 ft | 65 kts | 206° |
| 2026-05-04 22:37 | 40.68557 | -74.16926 | 17 ft | 13 kts | 218° |
| 2026-05-04 22:37 | 40.68520 | -74.17013 | 18 ft | 11 kts | 247° |
| 2026-05-04 22:37 | 40.68481 | -74.17104 | 19 ft | 12 kts | 234° |
| 2026-05-04 22:38 | 40.68470 | -74.17124 | 20 ft | 0 kts | 234° |
| 2026-05-04 22:39 | 40.68466 | -74.17132 | 19 ft | 3 kts | 234° |
| 2026-05-04 22:39 | 40.68446 | -74.17168 | 19 ft | 7 kts | 236° |
| 2026-05-04 22:39 | 40.68444 | -74.17240 | 19 ft | 9 kts | 291° |
| 2026-05-04 22:39 | 40.68474 | -74.17326 | 20 ft | 12 kts | 296° |
| 2026-05-04 22:40 | 40.68516 | -74.17440 | 19 ft | 14 kts | 296° |
| 2026-05-04 22:40 | 40.68537 | -74.17465 | 19 ft | 5 kts | 327° |
| 2026-05-04 22:40 | 40.68571 | -74.17498 | 18 ft | 8 kts | 311° |
| 2026-05-04 22:40 | 40.68613 | -74.17532 | 18 ft | 8 kts | 2° |
| 2026-05-04 22:41 | 40.68674 | -74.17505 | 18 ft | 11 kts | 25° |
| 2026-05-04 22:41 | 40.68756 | -74.17453 | 18 ft | 15 kts | 26° |
| 2026-05-04 22:41 | 40.68865 | -74.17382 | 18 ft | 19 kts | 26° |
| 2026-05-04 22:41 | 40.68999 | -74.17296 | 18 ft | 23 kts | 25° |
| 2026-05-04 22:42 | 40.69149 | -74.17202 | 18 ft | 22 kts | 26° |
| 2026-05-04 22:42 | 40.69287 | -74.17114 | 18 ft | 16 kts | 24° |
| 2026-05-04 22:42 | 40.69377 | -74.17071 | 18 ft | 9 kts | 13° |
| 2026-05-04 22:42 | 40.69446 | -74.17069 | 18 ft | 11 kts | 358° |
| 2026-05-04 22:43 | 40.69536 | -74.17081 | 19 ft | 14 kts | 345° |
| 2026-05-04 22:43 | 40.69617 | -74.17122 | 18 ft | 6 kts | 316° |
| 2026-05-04 22:43 | 40.69631 | -74.17187 | 18 ft | 9 kts | 258° |
| 2026-05-04 22:43 | 40.69625 | -74.17211 | 19 ft | 1 kts | 244° |
| 2026-05-04 22:44 | 40.69615 | -74.17235 | 18 ft | 5 kts | 242° |
| 2026-05-04 22:44 | 40.69613 | -74.17241 | 18 ft | 0 kts | 241° |